Terminal Aerodrome Forecast
Issued by NWS

Home | Current Version | Previous Version | Graphics & Text | Print | Product List | Glossary On
Versions: 1 2 3 4 5 6 7 8 9 10 11 12
220
FTUS43 KIWX 262338
TAFSBN
TAF
KSBN 262338Z 2700/2724 26008KT P6SM SKC
     FM271200 24012KT P6SM SKC
     FM271500 25018G26KT P6SM FEW250
     FM272300 26009KT P6SM BKN050=

USA.gov is the U.S. government's official web portal to all federal, state and local government web resources and services.